sensor_id;sensor_type;location;lat;lon;timestamp;P1;durP1;ratioP1;P2;durP2;ratioP2
75616;SDS011;64200;55.426;37.758;2023-12-20T00:01:37;0.80;;;0.53;;
75616;SDS011;64200;55.426;37.758;2023-12-20T00:06:37;0.40;;;0.33;;
75616;SDS011;64200;55.426;37.758;2023-12-20T00:11:38;0.70;;;0.70;;
75616;SDS011;64200;55.426;37.758;2023-12-20T00:16:38;1.30;;;0.60;;
75616;SDS011;64200;55.426;37.758;2023-12-20T00:21:39;1.20;;;0.90;;
75616;SDS011;64200;55.426;37.758;2023-12-20T00:26:39;1.47;;;0.63;;
75616;SDS011;64200;55.426;37.758;2023-12-20T00:31:40;0.33;;;0.30;;
75616;SDS011;64200;55.426;37.758;2023-12-20T00:36:40;1.50;;;1.00;;
75616;SDS011;64200;55.426;37.758;2023-12-20T00:41:41;0.90;;;0.60;;
75616;SDS011;64200;55.426;37.758;2023-12-20T00:46:41;0.90;;;0.60;;
75616;SDS011;64200;55.426;37.758;2023-12-20T00:51:42;2.20;;;0.70;;
75616;SDS011;64200;55.426;37.758;2023-12-20T00:56:42;1.07;;;0.70;;
75616;SDS011;64200;55.426;37.758;2023-12-20T01:01:43;1.85;;;0.57;;
75616;SDS011;64200;55.426;37.758;2023-12-20T01:06:43;1.65;;;0.60;;
75616;SDS011;64200;55.426;37.758;2023-12-20T01:11:44;0.90;;;0.50;;
75616;SDS011;64200;55.426;37.758;2023-12-20T01:16:46;1.48;;;0.30;;
75616;SDS011;64200;55.426;37.758;2023-12-20T01:21:47;1.58;;;0.38;;
75616;SDS011;64200;55.426;37.758;2023-12-20T01:26:47;1.70;;;0.40;;
75616;SDS011;64200;55.426;37.758;2023-12-20T01:31:48;1.20;;;0.40;;
75616;SDS011;64200;55.426;37.758;2023-12-20T01:36:48;1.20;;;0.17;;
75616;SDS011;64200;55.426;37.758;2023-12-20T01:41:49;0.30;;;0.20;;
75616;SDS011;64200;55.426;37.758;2023-12-20T01:46:49;0.40;;;0.20;;
75616;SDS011;64200;55.426;37.758;2023-12-20T01:51:50;0.33;;;0.20;;
75616;SDS011;64200;55.426;37.758;2023-12-20T01:56:50;0.50;;;0.20;;
75616;SDS011;64200;55.426;37.758;2023-12-20T02:01:51;1.90;;;0.38;;
75616;SDS011;64200;55.426;37.758;2023-12-20T02:06:52;0.30;;;0.30;;
75616;SDS011;64200;55.426;37.758;2023-12-20T02:11:53;0.88;;;0.35;;
75616;SDS011;64200;55.426;37.758;2023-12-20T02:16:54;1.67;;;0.70;;
75616;SDS011;64200;55.426;37.758;2023-12-20T02:22:10;1.60;;;0.97;;
75616;SDS011;64200;55.426;37.758;2023-12-20T02:27:11;1.73;;;1.20;;
75616;SDS011;64200;55.426;37.758;2023-12-20T02:32:12;1.85;;;1.13;;
75616;SDS011;64200;55.426;37.758;2023-12-20T02:37:12;3.67;;;1.53;;
75616;SDS011;64200;55.426;37.758;2023-12-20T02:42:13;2.67;;;1.40;;
75616;SDS011;64200;55.426;37.758;2023-12-20T02:47:13;2.53;;;1.30;;
75616;SDS011;64200;55.426;37.758;2023-12-20T02:52:14;1.80;;;1.10;;
75616;SDS011;64200;55.426;37.758;2023-12-20T02:57:14;2.17;;;1.23;;
75616;SDS011;64200;55.426;37.758;2023-12-20T03:02:15;2.20;;;1.30;;
75616;SDS011;64200;55.426;37.758;2023-12-20T03:07:15;2.07;;;1.20;;
75616;SDS011;64200;55.426;37.758;2023-12-20T03:12:16;3.30;;;1.37;;
75616;SDS011;64200;55.426;37.758;2023-12-20T03:17:16;2.00;;;1.30;;
75616;SDS011;64200;55.426;37.758;2023-12-20T03:22:17;3.50;;;1.40;;
75616;SDS011;64200;55.426;37.758;2023-12-20T03:27:17;2.10;;;0.60;;
75616;SDS011;64200;55.426;37.758;2023-12-20T03:32:18;1.38;;;0.98;;
75616;SDS011;64200;55.426;37.758;2023-12-20T03:37:18;1.10;;;0.80;;
75616;SDS011;64200;55.426;37.758;2023-12-20T03:42:19;1.27;;;0.70;;
75616;SDS011;64200;55.426;37.758;2023-12-20T03:47:19;2.63;;;1.13;;
75616;SDS011;64200;55.426;37.758;2023-12-20T03:52:20;3.83;;;0.83;;
75616;SDS011;64200;55.426;37.758;2023-12-20T03:57:20;2.10;;;1.07;;
75616;SDS011;64200;55.426;37.758;2023-12-20T04:02:20;2.87;;;1.80;;
75616;SDS011;64200;55.426;37.758;2023-12-20T04:07:21;4.37;;;1.63;;
75616;SDS011;64200;55.426;37.758;2023-12-20T04:12:21;3.70;;;1.63;;
75616;SDS011;64200;55.426;37.758;2023-12-20T04:17:22;2.17;;;1.13;;
75616;SDS011;64200;55.426;37.758;2023-12-20T04:22:23;3.65;;;1.90;;
75616;SDS011;64200;55.426;37.758;2023-12-20T04:27:23;2.60;;;1.83;;
75616;SDS011;64200;55.426;37.758;2023-12-20T04:32:23;2.20;;;1.07;;
75616;SDS011;64200;55.426;37.758;2023-12-20T04:37:24;1.00;;;0.90;;
75616;SDS011;64200;55.426;37.758;2023-12-20T04:42:25;1.38;;;1.00;;
75616;SDS011;64200;55.426;37.758;2023-12-20T04:47:25;1.10;;;0.67;;
75616;SDS011;64200;55.426;37.758;2023-12-20T04:52:26;1.57;;;0.87;;
75616;SDS011;64200;55.426;37.758;2023-12-20T04:57:26;2.50;;;1.20;;
75616;SDS011;64200;55.426;37.758;2023-12-20T05:02:27;3.47;;;0.90;;
75616;SDS011;64200;55.426;37.758;2023-12-20T05:07:27;1.63;;;1.10;;
75616;SDS011;64200;55.426;37.758;2023-12-20T05:12:28;1.73;;;1.00;;
75616;SDS011;64200;55.426;37.758;2023-12-20T05:17:28;1.38;;;1.10;;
75616;SDS011;64200;55.426;37.758;2023-12-20T05:22:29;2.37;;;0.90;;
75616;SDS011;64200;55.426;37.758;2023-12-20T05:27:29;1.77;;;1.33;;
75616;SDS011;64200;55.426;37.758;2023-12-20T05:32:30;1.92;;;0.90;;
75616;SDS011;64200;55.426;37.758;2023-12-20T05:37:31;0.82;;;0.52;;
75616;SDS011;64200;55.426;37.758;2023-12-20T05:42:31;1.23;;;0.90;;
75616;SDS011;64200;55.426;37.758;2023-12-20T05:47:32;2.97;;;1.00;;
75616;SDS011;64200;55.426;37.758;2023-12-20T05:52:32;2.03;;;0.50;;
75616;SDS011;64200;55.426;37.758;2023-12-20T05:57:33;1.30;;;0.70;;
75616;SDS011;64200;55.426;37.758;2023-12-20T06:02:35;0.77;;;0.60;;
75616;SDS011;64200;55.426;37.758;2023-12-20T06:07:36;1.20;;;0.70;;
75616;SDS011;64200;55.426;37.758;2023-12-20T06:12:37;1.67;;;0.90;;
75616;SDS011;64200;55.426;37.758;2023-12-20T06:17:38;1.60;;;1.10;;
75616;SDS011;64200;55.426;37.758;2023-12-20T06:22:39;1.87;;;1.10;;
75616;SDS011;64200;55.426;37.758;2023-12-20T06:27:39;1.60;;;0.90;;
75616;SDS011;64200;55.426;37.758;2023-12-20T06:32:41;2.78;;;1.10;;
75616;SDS011;64200;55.426;37.758;2023-12-20T06:37:42;1.30;;;0.70;;
75616;SDS011;64200;55.426;37.758;2023-12-20T06:42:43;1.20;;;0.63;;
75616;SDS011;64200;55.426;37.758;2023-12-20T06:47:44;1.10;;;0.73;;
75616;SDS011;64200;55.426;37.758;2023-12-20T06:52:44;2.47;;;1.23;;
75616;SDS011;64200;55.426;37.758;2023-12-20T06:57:45;7.73;;;1.03;;
75616;SDS011;64200;55.426;37.758;2023-12-20T07:02:45;1.37;;;0.73;;
75616;SDS011;64200;55.426;37.758;2023-12-20T07:07:47;4.20;;;1.30;;
75616;SDS011;64200;55.426;37.758;2023-12-20T07:12:48;2.03;;;1.00;;
75616;SDS011;64200;55.426;37.758;2023-12-20T07:17:49;1.83;;;0.90;;
75616;SDS011;64200;55.426;37.758;2023-12-20T07:22:49;2.20;;;1.05;;
75616;SDS011;64200;55.426;37.758;2023-12-20T07:27:50;1.75;;;0.82;;
75616;SDS011;64200;55.426;37.758;2023-12-20T07:32:51;1.23;;;0.70;;
75616;SDS011;64200;55.426;37.758;2023-12-20T07:37:52;1.90;;;0.98;;
75616;SDS011;64200;55.426;37.758;2023-12-20T07:42:53;2.92;;;1.63;;
75616;SDS011;64200;55.426;37.758;2023-12-20T07:47:53;1.13;;;0.77;;
75616;SDS011;64200;55.426;37.758;2023-12-20T07:52:54;1.60;;;1.20;;
75616;SDS011;64200;55.426;37.758;2023-12-20T07:57:55;1.50;;;0.98;;
75616;SDS011;64200;55.426;37.758;2023-12-20T08:02:55;1.30;;;1.00;;
75616;SDS011;64200;55.426;37.758;2023-12-20T08:07:56;2.57;;;1.53;;
75616;SDS011;64200;55.426;37.758;2023-12-20T08:12:57;2.43;;;0.73;;
75616;SDS011;64200;55.426;37.758;2023-12-20T08:17:58;2.08;;;1.45;;
75616;SDS011;64200;55.426;37.758;2023-12-20T08:22:58;1.73;;;0.90;;
75616;SDS011;64200;55.426;37.758;2023-12-20T08:27:59;3.73;;;1.73;;
75616;SDS011;64200;55.426;37.758;2023-12-20T08:33:00;1.93;;;1.57;;
75616;SDS011;64200;55.426;37.758;2023-12-20T08:38:01;2.35;;;1.48;;
75616;SDS011;64200;55.426;37.758;2023-12-20T08:43:01;3.35;;;1.75;;
75616;SDS011;64200;55.426;37.758;2023-12-20T08:48:02;2.53;;;1.30;;
75616;SDS011;64200;55.426;37.758;2023-12-20T08:53:03;1.55;;;0.90;;
75616;SDS011;64200;55.426;37.758;2023-12-20T08:58:04;2.17;;;0.95;;
75616;SDS011;64200;55.426;37.758;2023-12-20T09:03:06;3.00;;;1.50;;
75616;SDS011;64200;55.426;37.758;2023-12-20T09:08:07;2.83;;;1.33;;
75616;SDS011;64200;55.426;37.758;2023-12-20T09:13:10;3.80;;;1.15;;
75616;SDS011;64200;55.426;37.758;2023-12-20T09:18:10;2.30;;;1.23;;
75616;SDS011;64200;55.426;37.758;2023-12-20T09:23:11;1.67;;;1.20;;
75616;SDS011;64200;55.426;37.758;2023-12-20T09:28:11;1.52;;;1.10;;
75616;SDS011;64200;55.426;37.758;2023-12-20T09:33:12;1.10;;;0.90;;
75616;SDS011;64200;55.426;37.758;2023-12-20T09:38:12;1.00;;;0.60;;
75616;SDS011;64200;55.426;37.758;2023-12-20T09:43:15;0.60;;;0.52;;
75616;SDS011;64200;55.426;37.758;2023-12-20T09:48:20;0.88;;;0.55;;
75616;SDS011;64200;55.426;37.758;2023-12-20T09:53:20;0.80;;;0.60;;
75616;SDS011;64200;55.426;37.758;2023-12-20T09:58:23;0.40;;;0.40;;
75616;SDS011;64200;55.426;37.758;2023-12-20T10:03:24;1.20;;;0.82;;
75616;SDS011;64200;55.426;37.758;2023-12-20T10:08:26;1.30;;;0.63;;
75616;SDS011;64200;55.426;37.758;2023-12-20T10:13:27;2.10;;;1.27;;
75616;SDS011;64200;55.426;37.758;2023-12-20T10:18:28;2.00;;;1.30;;
75616;SDS011;64200;55.426;37.758;2023-12-20T10:23:29;1.83;;;1.30;;
75616;SDS011;64200;55.426;37.758;2023-12-20T10:28:33;2.22;;;1.25;;
75616;SDS011;64200;55.426;37.758;2023-12-20T10:33:34;3.58;;;1.20;;
75616;SDS011;64200;55.426;37.758;2023-12-20T10:38:35;1.30;;;0.85;;
75616;SDS011;64200;55.426;37.758;2023-12-20T10:43:38;1.55;;;0.52;;
75616;SDS011;64200;55.426;37.758;2023-12-20T10:48:40;1.38;;;0.80;;
75616;SDS011;64200;55.426;37.758;2023-12-20T10:53:42;1.20;;;0.70;;
75616;SDS011;64200;55.426;37.758;2023-12-20T10:58:43;1.48;;;0.90;;
75616;SDS011;64200;55.426;37.758;2023-12-20T11:03:50;3.63;;;1.13;;
75616;SDS011;64200;55.426;37.758;2023-12-20T11:14:30;3.78;;;1.77;;
75616;SDS011;64200;55.426;37.758;2023-12-20T11:25:00;1.60;;;1.10;;
75616;SDS011;64200;55.426;37.758;2023-12-20T11:30:10;2.58;;;0.90;;
75616;SDS011;64200;55.426;37.758;2023-12-20T11:40:12;1.70;;;1.00;;
75616;SDS011;64200;55.426;37.758;2023-12-20T11:45:16;4.07;;;1.63;;
75616;SDS011;64200;55.426;37.758;2023-12-20T11:50:20;3.00;;;1.58;;
75616;SDS011;64200;55.426;37.758;2023-12-20T11:55:22;1.65;;;1.05;;
75616;SDS011;64200;55.426;37.758;2023-12-20T12:00:24;5.70;;;0.90;;
75616;SDS011;64200;55.426;37.758;2023-12-20T12:05:25;1.08;;;0.63;;
75616;SDS011;64200;55.426;37.758;2023-12-20T12:10:26;1.08;;;0.60;;
75616;SDS011;64200;55.426;37.758;2023-12-20T12:15:26;1.93;;;0.90;;
75616;SDS011;64200;55.426;37.758;2023-12-20T12:20:27;3.42;;;1.10;;
75616;SDS011;64200;55.426;37.758;2023-12-20T12:25:28;0.75;;;0.63;;
75616;SDS011;64200;55.426;37.758;2023-12-20T12:30:30;2.22;;;1.00;;
75616;SDS011;64200;55.426;37.758;2023-12-20T12:35:31;2.43;;;1.30;;
75616;SDS011;64200;55.426;37.758;2023-12-20T12:40:34;2.90;;;1.00;;
75616;SDS011;64200;55.426;37.758;2023-12-20T12:45:36;1.48;;;1.02;;
75616;SDS011;64200;55.426;37.758;2023-12-20T12:50:36;1.30;;;0.90;;
75616;SDS011;64200;55.426;37.758;2023-12-20T12:55:37;1.60;;;1.00;;
75616;SDS011;64200;55.426;37.758;2023-12-20T13:00:37;1.02;;;0.60;;
75616;SDS011;64200;55.426;37.758;2023-12-20T13:05:38;2.20;;;1.00;;
75616;SDS011;64200;55.426;37.758;2023-12-20T13:10:38;2.60;;;1.30;;
75616;SDS011;64200;55.426;37.758;2023-12-20T13:15:39;1.57;;;1.00;;
75616;SDS011;64200;55.426;37.758;2023-12-20T13:20:40;1.02;;;0.68;;
75616;SDS011;64200;55.426;37.758;2023-12-20T13:25:41;2.83;;;1.00;;
75616;SDS011;64200;55.426;37.758;2023-12-20T13:30:41;2.63;;;0.70;;
75616;SDS011;64200;55.426;37.758;2023-12-20T13:35:42;1.10;;;0.57;;
75616;SDS011;64200;55.426;37.758;2023-12-20T13:40:43;1.00;;;0.67;;
75616;SDS011;64200;55.426;37.758;2023-12-20T13:45:43;2.05;;;1.20;;
75616;SDS011;64200;55.426;37.758;2023-12-20T13:50:44;2.93;;;1.10;;
75616;SDS011;64200;55.426;37.758;2023-12-20T13:55:44;3.87;;;2.00;;
75616;SDS011;64200;55.426;37.758;2023-12-20T14:00:45;2.72;;;1.50;;
75616;SDS011;64200;55.426;37.758;2023-12-20T14:05:45;1.58;;;0.90;;
75616;SDS011;64200;55.426;37.758;2023-12-20T14:10:46;3.53;;;1.20;;
75616;SDS011;64200;55.426;37.758;2023-12-20T14:15:46;1.30;;;0.77;;
75616;SDS011;64200;55.426;37.758;2023-12-20T14:20:49;2.30;;;1.10;;
75616;SDS011;64200;55.426;37.758;2023-12-20T14:25:50;1.30;;;0.70;;
75616;SDS011;64200;55.426;37.758;2023-12-20T14:30:51;2.50;;;1.13;;
75616;SDS011;64200;55.426;37.758;2023-12-20T14:35:51;1.67;;;0.63;;
75616;SDS011;64200;55.426;37.758;2023-12-20T14:40:52;1.05;;;0.80;;
75616;SDS011;64200;55.426;37.758;2023-12-20T14:45:53;2.08;;;1.20;;
75616;SDS011;64200;55.426;37.758;2023-12-20T14:50:54;1.37;;;0.77;;
75616;SDS011;64200;55.426;37.758;2023-12-20T14:55:54;0.83;;;0.43;;
75616;SDS011;64200;55.426;37.758;2023-12-20T15:00:55;2.42;;;1.25;;
75616;SDS011;64200;55.426;37.758;2023-12-20T15:05:59;2.13;;;1.08;;
75616;SDS011;64200;55.426;37.758;2023-12-20T15:10:59;0.88;;;0.60;;
75616;SDS011;64200;55.426;37.758;2023-12-20T15:16:01;1.88;;;0.90;;
75616;SDS011;64200;55.426;37.758;2023-12-20T15:21:02;1.92;;;1.33;;
75616;SDS011;64200;55.426;37.758;2023-12-20T15:26:03;3.08;;;1.10;;
75616;SDS011;64200;55.426;37.758;2023-12-20T15:31:04;2.33;;;1.48;;
75616;SDS011;64200;55.426;37.758;2023-12-20T15:36:05;1.38;;;0.75;;
75616;SDS011;64200;55.426;37.758;2023-12-20T15:41:06;2.75;;;1.90;;
75616;SDS011;64200;55.426;37.758;2023-12-20T15:46:06;2.10;;;1.10;;
75616;SDS011;64200;55.426;37.758;2023-12-20T15:51:10;1.63;;;1.10;;
75616;SDS011;64200;55.426;37.758;2023-12-20T15:56:10;1.45;;;0.77;;
75616;SDS011;64200;55.426;37.758;2023-12-20T16:01:11;2.05;;;1.08;;
75616;SDS011;64200;55.426;37.758;2023-12-20T16:06:12;2.57;;;1.73;;
75616;SDS011;64200;55.426;37.758;2023-12-20T16:11:12;1.85;;;1.25;;
75616;SDS011;64200;55.426;37.758;2023-12-20T16:16:13;3.33;;;1.75;;
75616;SDS011;64200;55.426;37.758;2023-12-20T16:21:13;3.90;;;1.90;;
75616;SDS011;64200;55.426;37.758;2023-12-20T16:26:14;2.37;;;1.10;;
75616;SDS011;64200;55.426;37.758;2023-12-20T16:31:14;2.83;;;1.47;;
75616;SDS011;64200;55.426;37.758;2023-12-20T16:36:15;3.17;;;2.20;;
75616;SDS011;64200;55.426;37.758;2023-12-20T16:41:16;1.77;;;0.90;;
75616;SDS011;64200;55.426;37.758;2023-12-20T16:46:16;2.67;;;1.90;;
75616;SDS011;64200;55.426;37.758;2023-12-20T16:51:17;1.80;;;1.23;;
75616;SDS011;64200;55.426;37.758;2023-12-20T16:56:17;2.67;;;1.40;;
75616;SDS011;64200;55.426;37.758;2023-12-20T17:01:18;2.00;;;1.10;;
75616;SDS011;64200;55.426;37.758;2023-12-20T17:06:19;2.25;;;1.45;;
75616;SDS011;64200;55.426;37.758;2023-12-20T17:11:20;3.63;;;1.90;;
75616;SDS011;64200;55.426;37.758;2023-12-20T17:16:23;3.03;;;1.85;;
75616;SDS011;64200;55.426;37.758;2023-12-20T17:21:23;3.63;;;1.80;;
75616;SDS011;64200;55.426;37.758;2023-12-20T17:26:24;3.08;;;1.60;;
75616;SDS011;64200;55.426;37.758;2023-12-20T17:31:25;4.82;;;2.40;;
75616;SDS011;64200;55.426;37.758;2023-12-20T17:36:26;3.73;;;2.10;;
75616;SDS011;64200;55.426;37.758;2023-12-20T17:41:26;3.43;;;2.13;;
75616;SDS011;64200;55.426;37.758;2023-12-20T17:46:26;5.63;;;2.60;;
75616;SDS011;64200;55.426;37.758;2023-12-20T17:51:27;5.47;;;2.88;;
75616;SDS011;64200;55.426;37.758;2023-12-20T17:56:28;3.40;;;2.03;;
75616;SDS011;64200;55.426;37.758;2023-12-20T18:01:29;3.97;;;2.35;;
75616;SDS011;64200;55.426;37.758;2023-12-20T18:06:30;5.97;;;3.10;;
75616;SDS011;64200;55.426;37.758;2023-12-20T18:11:30;4.65;;;1.75;;
75616;SDS011;64200;55.426;37.758;2023-12-20T18:16:31;3.23;;;1.70;;
75616;SDS011;64200;55.426;37.758;2023-12-20T18:21:31;2.17;;;1.50;;
75616;SDS011;64200;55.426;37.758;2023-12-20T18:26:32;2.13;;;1.40;;
75616;SDS011;64200;55.426;37.758;2023-12-20T18:31:35;2.88;;;1.80;;
75616;SDS011;64200;55.426;37.758;2023-12-20T18:36:36;4.00;;;1.70;;
75616;SDS011;64200;55.426;37.758;2023-12-20T18:41:36;4.73;;;1.80;;
75616;SDS011;64200;55.426;37.758;2023-12-20T18:46:37;3.35;;;1.98;;
75616;SDS011;64200;55.426;37.758;2023-12-20T18:51:37;3.13;;;1.90;;
75616;SDS011;64200;55.426;37.758;2023-12-20T18:56:38;3.53;;;1.83;;
75616;SDS011;64200;55.426;37.758;2023-12-20T19:01:40;3.40;;;2.10;;
75616;SDS011;64200;55.426;37.758;2023-12-20T19:06:41;2.58;;;1.48;;
75616;SDS011;64200;55.426;37.758;2023-12-20T19:11:41;4.88;;;2.40;;
75616;SDS011;64200;55.426;37.758;2023-12-20T19:16:42;3.80;;;1.70;;
75616;SDS011;64200;55.426;37.758;2023-12-20T19:21:42;3.00;;;1.17;;
75616;SDS011;64200;55.426;37.758;2023-12-20T19:26:43;3.00;;;1.67;;
75616;SDS011;64200;55.426;37.758;2023-12-20T19:31:43;3.40;;;1.70;;
75616;SDS011;64200;55.426;37.758;2023-12-20T19:36:46;2.92;;;1.75;;
75616;SDS011;64200;55.426;37.758;2023-12-20T19:41:47;3.57;;;2.27;;
75616;SDS011;64200;55.426;37.758;2023-12-20T19:46:47;4.17;;;1.90;;
75616;SDS011;64200;55.426;37.758;2023-12-20T19:51:49;11.77;;;6.55;;
75616;SDS011;64200;55.426;37.758;2023-12-20T19:56:50;2.17;;;1.50;;
75616;SDS011;64200;55.426;37.758;2023-12-20T20:01:50;3.95;;;2.28;;
75616;SDS011;64200;55.426;37.758;2023-12-20T20:06:51;4.60;;;2.60;;
75616;SDS011;64200;55.426;37.758;2023-12-20T20:11:52;4.50;;;2.33;;
75616;SDS011;64200;55.426;37.758;2023-12-20T20:16:52;3.83;;;1.80;;
75616;SDS011;64200;55.426;37.758;2023-12-20T20:21:53;4.18;;;2.00;;
75616;SDS011;64200;55.426;37.758;2023-12-20T20:26:57;5.22;;;2.70;;
75616;SDS011;64200;55.426;37.758;2023-12-20T20:31:58;3.93;;;2.13;;
75616;SDS011;64200;55.426;37.758;2023-12-20T20:36:58;4.57;;;2.20;;
75616;SDS011;64200;55.426;37.758;2023-12-20T20:41:59;4.30;;;2.17;;
75616;SDS011;64200;55.426;37.758;2023-12-20T20:47:01;5.10;;;3.03;;
75616;SDS011;64200;55.426;37.758;2023-12-20T20:52:01;4.70;;;2.72;;
75616;SDS011;64200;55.426;37.758;2023-12-20T20:57:02;5.82;;;1.98;;
75616;SDS011;64200;55.426;37.758;2023-12-20T21:02:03;4.90;;;2.92;;
75616;SDS011;64200;55.426;37.758;2023-12-20T21:07:03;4.40;;;2.63;;
75616;SDS011;64200;55.426;37.758;2023-12-20T21:12:04;5.18;;;2.78;;
75616;SDS011;64200;55.426;37.758;2023-12-20T21:17:05;3.03;;;1.80;;
75616;SDS011;64200;55.426;37.758;2023-12-20T21:22:06;5.00;;;3.00;;
75616;SDS011;64200;55.426;37.758;2023-12-20T21:27:06;5.78;;;3.20;;
75616;SDS011;64200;55.426;37.758;2023-12-20T21:32:10;5.72;;;3.33;;
75616;SDS011;64200;55.426;37.758;2023-12-20T21:37:12;5.47;;;3.15;;
75616;SDS011;64200;55.426;37.758;2023-12-20T21:42:12;4.97;;;2.50;;
75616;SDS011;64200;55.426;37.758;2023-12-20T21:47:13;7.43;;;3.90;;
75616;SDS011;64200;55.426;37.758;2023-12-20T21:52:13;8.50;;;4.90;;
75616;SDS011;64200;55.426;37.758;2023-12-20T21:57:14;6.22;;;3.35;;
75616;SDS011;64200;55.426;37.758;2023-12-20T22:02:15;6.72;;;3.67;;
75616;SDS011;64200;55.426;37.758;2023-12-20T22:07:16;5.60;;;3.30;;
75616;SDS011;64200;55.426;37.758;2023-12-20T22:12:16;4.15;;;2.10;;
75616;SDS011;64200;55.426;37.758;2023-12-20T22:17:17;3.60;;;2.25;;
75616;SDS011;64200;55.426;37.758;2023-12-20T22:22:17;5.05;;;2.55;;
75616;SDS011;64200;55.426;37.758;2023-12-20T22:27:18;5.40;;;2.60;;
75616;SDS011;64200;55.426;37.758;2023-12-20T22:32:19;3.83;;;2.00;;
75616;SDS011;64200;55.426;37.758;2023-12-20T22:37:19;4.65;;;2.60;;
75616;SDS011;64200;55.426;37.758;2023-12-20T22:42:21;5.50;;;3.13;;
75616;SDS011;64200;55.426;37.758;2023-12-20T22:47:22;5.40;;;2.63;;
75616;SDS011;64200;55.426;37.758;2023-12-20T22:52:23;2.72;;;1.63;;
75616;SDS011;64200;55.426;37.758;2023-12-20T22:57:24;2.53;;;1.30;;
75616;SDS011;64200;55.426;37.758;2023-12-20T23:02:25;3.30;;;1.80;;
75616;SDS011;64200;55.426;37.758;2023-12-20T23:07:26;2.57;;;1.47;;
75616;SDS011;64200;55.426;37.758;2023-12-20T23:12:26;1.83;;;1.15;;
75616;SDS011;64200;55.426;37.758;2023-12-20T23:17:27;1.40;;;0.77;;
75616;SDS011;64200;55.426;37.758;2023-12-20T23:22:27;2.15;;;1.20;;
75616;SDS011;64200;55.426;37.758;2023-12-20T23:27:28;6.30;;;3.53;;
75616;SDS011;64200;55.426;37.758;2023-12-20T23:32:28;2.13;;;1.23;;
75616;SDS011;64200;55.426;37.758;2023-12-20T23:37:29;1.53;;;1.10;;
75616;SDS011;64200;55.426;37.758;2023-12-20T23:42:29;2.05;;;1.30;;
75616;SDS011;64200;55.426;37.758;2023-12-20T23:47:30;1.88;;;1.20;;
75616;SDS011;64200;55.426;37.758;2023-12-20T23:52:31;1.67;;;0.90;;
75616;SDS011;64200;55.426;37.758;2023-12-20T23:57:31;1.50;;;0.97;;
